sensor_id;sensor_type;location;lat;lon;timestamp;pressure;altitude;pressure_sealevel;temperature;humidity
48517;BME280;34310;51.904;4.256;2022-11-04T00:01:43;100179.03;;;18.82;64.00
48517;BME280;34310;51.904;4.256;2022-11-04T00:04:12;100183.38;;;18.81;63.80
48517;BME280;34310;51.904;4.256;2022-11-04T00:06:41;100189.47;;;18.80;63.84
48517;BME280;34310;51.904;4.256;2022-11-04T00:09:11;100193.81;;;18.80;63.81
48517;BME280;34310;51.904;4.256;2022-11-04T00:11:38;100186.84;;;18.80;63.76
48517;BME280;34310;51.904;4.256;2022-11-04T00:14:24;100194.69;;;18.80;63.85
48517;BME280;34310;51.904;4.256;2022-11-04T00:16:51;100192.91;;;18.79;63.78
48517;BME280;34310;51.904;4.256;2022-11-04T00:19:38;100198.06;;;18.78;64.03
48517;BME280;34310;51.904;4.256;2022-11-04T00:22:24;100195.47;;;18.78;63.72
48517;BME280;34310;51.904;4.256;2022-11-04T00:25:23;100204.16;;;18.77;63.82
48517;BME280;34310;51.904;4.256;2022-11-04T00:28:19;100199.81;;;18.77;64.01
48517;BME280;34310;51.904;4.256;2022-11-04T00:31:06;100207.63;;;18.76;63.99
48517;BME280;34310;51.904;4.256;2022-11-04T00:33:55;100218.88;;;18.73;63.79
48517;BME280;34310;51.904;4.256;2022-11-04T00:36:23;100231.09;;;18.74;63.75
48517;BME280;34310;51.904;4.256;2022-11-04T00:38:51;100236.34;;;18.74;63.96
48517;BME280;34310;51.904;4.256;2022-11-04T00:41:19;100231.06;;;18.73;63.88
48517;BME280;34310;51.904;4.256;2022-11-04T00:44:02;100229.38;;;18.75;63.85
48517;BME280;34310;51.904;4.256;2022-11-04T00:46:32;100225.84;;;18.73;63.97
48517;BME280;34310;51.904;4.256;2022-11-04T00:48:59;100221.53;;;18.75;63.90
48517;BME280;34310;51.904;4.256;2022-11-04T00:51:27;100223.13;;;18.70;64.00
48517;BME280;34310;51.904;4.256;2022-11-04T00:53:55;100236.16;;;18.68;64.17
48517;BME280;34310;51.904;4.256;2022-11-04T00:56:24;100240.56;;;18.69;64.20
48517;BME280;34310;51.904;4.256;2022-11-04T00:58:51;100245.81;;;18.71;63.89
48517;BME280;34310;51.904;4.256;2022-11-04T01:01:19;100252.78;;;18.70;63.98
48517;BME280;34310;51.904;4.256;2022-11-04T01:03:49;100243.13;;;18.68;64.17
48517;BME280;34310;51.904;4.256;2022-11-04T01:06:17;100255.34;;;18.69;64.04
48517;BME280;34310;51.904;4.256;2022-11-04T01:08:46;100255.31;;;18.67;64.16
48517;BME280;34310;51.904;4.256;2022-11-04T01:11:14;100264.03;;;18.68;64.10
48517;BME280;34310;51.904;4.256;2022-11-04T01:13:42;100264.84;;;18.65;63.99
48517;BME280;34310;51.904;4.256;2022-11-04T01:16:10;100263.13;;;18.66;64.21
48517;BME280;34310;51.904;4.256;2022-11-04T01:18:39;100269.28;;;18.68;64.16
48517;BME280;34310;51.904;4.256;2022-11-04T01:21:09;100264.84;;;18.65;64.16
48517;BME280;34310;51.904;4.256;2022-11-04T01:23:37;100274.47;;;18.66;64.13
48517;BME280;34310;51.904;4.256;2022-11-04T01:26:11;100273.53;;;18.64;64.11
48517;BME280;34310;51.904;4.256;2022-11-04T01:28:39;100263.97;;;18.65;63.98
48517;BME280;34310;51.904;4.256;2022-11-04T01:31:14;100265.56;;;18.61;64.03
48517;BME280;34310;51.904;4.256;2022-11-04T01:33:41;100269.91;;;18.61;64.13
48517;BME280;34310;51.904;4.256;2022-11-04T01:36:09;100262.88;;;18.58;64.00
48517;BME280;34310;51.904;4.256;2022-11-04T01:38:37;100261.16;;;18.58;64.28
48517;BME280;34310;51.904;4.256;2022-11-04T01:41:06;100263.72;;;18.57;64.24
48517;BME280;34310;51.904;4.256;2022-11-04T01:49:13;100275.06;;;18.57;64.00
48517;BME280;34310;51.904;4.256;2022-11-04T01:51:45;100281.97;;;18.55;64.21
48517;BME280;34310;51.904;4.256;2022-11-04T01:54:13;100284.50;;;18.52;64.37
48517;BME280;34310;51.904;4.256;2022-11-04T01:56:42;100279.28;;;18.52;64.16
48517;BME280;34310;51.904;4.256;2022-11-04T01:59:24;100283.59;;;18.52;64.31
48517;BME280;34310;51.904;4.256;2022-11-04T02:01:52;100295.84;;;18.53;64.37
48517;BME280;34310;51.904;4.256;2022-11-04T02:04:20;100297.56;;;18.52;64.17
48517;BME280;34310;51.904;4.256;2022-11-04T02:06:57;100291.50;;;18.53;64.27
48517;BME280;34310;51.904;4.256;2022-11-04T02:09:26;100291.41;;;18.50;64.20
48517;BME280;34310;51.904;4.256;2022-11-04T02:11:55;100290.56;;;18.51;64.30
48517;BME280;34310;51.904;4.256;2022-11-04T02:14:42;100294.84;;;18.49;64.23
48517;BME280;34310;51.904;4.256;2022-11-04T02:25:30;100303.38;;;18.44;64.40
48517;BME280;34310;51.904;4.256;2022-11-04T02:31:13;100303.44;;;18.45;64.38
48517;BME280;34310;51.904;4.256;2022-11-04T02:41:44;100312.06;;;18.43;64.31
48517;BME280;34310;51.904;4.256;2022-11-04T02:44:18;100309.50;;;18.44;64.23
48517;BME280;34310;51.904;4.256;2022-11-04T02:46:57;100310.34;;;18.43;64.44
48517;BME280;34310;51.904;4.256;2022-11-04T02:52:11;100303.25;;;18.39;64.46
48517;BME280;34310;51.904;4.256;2022-11-04T02:54:41;100307.63;;;18.40;64.46
48517;BME280;34310;51.904;4.256;2022-11-04T02:57:15;100306.66;;;18.37;64.63
48517;BME280;34310;51.904;4.256;2022-11-04T03:00:11;100303.19;;;18.38;64.55
48517;BME280;34310;51.904;4.256;2022-11-04T03:02:43;100302.34;;;18.39;64.29
48517;BME280;34310;51.904;4.256;2022-11-04T03:05:15;100304.97;;;18.39;64.44
48517;BME280;34310;51.904;4.256;2022-11-04T03:07:45;100305.81;;;18.38;64.50
48517;BME280;34310;51.904;4.256;2022-11-04T03:10:23;100301.53;;;18.40;64.57
48517;BME280;34310;51.904;4.256;2022-11-04T03:12:57;100314.53;;;18.38;64.57
48517;BME280;34310;51.904;4.256;2022-11-04T03:15:30;100310.19;;;18.39;64.58
48517;BME280;34310;51.904;4.256;2022-11-04T03:18:36;100318.94;;;18.39;64.53
48517;BME280;34310;51.904;4.256;2022-11-04T03:21:08;100319.72;;;18.37;64.66
48517;BME280;34310;51.904;4.256;2022-11-04T03:23:37;100322.38;;;18.38;64.33
48517;BME280;34310;51.904;4.256;2022-11-04T03:32:04;100324.00;;;18.35;64.71
48517;BME280;34310;51.904;4.256;2022-11-04T03:34:36;100328.41;;;18.36;64.41
48517;BME280;34310;51.904;4.256;2022-11-04T03:37:03;100333.59;;;18.34;64.69
48517;BME280;34310;51.904;4.256;2022-11-04T03:39:31;100331.81;;;18.33;64.71
48517;BME280;34310;51.904;4.256;2022-11-04T03:42:02;100334.47;;;18.35;64.66
48517;BME280;34310;51.904;4.256;2022-11-04T03:44:49;100336.19;;;18.34;64.68
48517;BME280;34310;51.904;4.256;2022-11-04T03:47:18;100335.31;;;18.34;64.63
48517;BME280;34310;51.904;4.256;2022-11-04T03:49:48;100330.03;;;18.32;64.63
48517;BME280;34310;51.904;4.256;2022-11-04T03:52:17;100339.59;;;18.32;64.65
48517;BME280;34310;51.904;4.256;2022-11-04T03:54:45;100333.50;;;18.31;64.56
48517;BME280;34310;51.904;4.256;2022-11-04T03:57:52;100338.72;;;18.31;64.69
48517;BME280;34310;51.904;4.256;2022-11-04T04:00:23;100341.38;;;18.33;64.62
48517;BME280;34310;51.904;4.256;2022-11-04T04:03:05;100345.63;;;18.29;64.50
48517;BME280;34310;51.904;4.256;2022-11-04T04:05:54;100355.25;;;18.30;64.72
48517;BME280;34310;51.904;4.256;2022-11-04T04:11:21;100356.13;;;18.31;64.72
48517;BME280;34310;51.904;4.256;2022-11-04T04:14:12;100358.69;;;18.29;64.74
48517;BME280;34310;51.904;4.256;2022-11-04T04:17:04;100361.22;;;18.26;64.79
48517;BME280;34310;51.904;4.256;2022-11-04T04:19:34;100362.09;;;18.26;64.77
48517;BME280;34310;51.904;4.256;2022-11-04T04:22:08;100366.38;;;18.24;64.57
48517;BME280;34310;51.904;4.256;2022-11-04T04:24:41;100369.03;;;18.26;64.54
48517;BME280;34310;51.904;4.256;2022-11-04T04:27:30;100373.34;;;18.24;64.64
48517;BME280;34310;51.904;4.256;2022-11-04T04:32:34;100369.00;;;18.24;64.65
48517;BME280;34310;51.904;4.256;2022-11-04T04:35:04;100374.94;;;18.20;64.70
48517;BME280;34310;51.904;4.256;2022-11-04T04:37:52;100376.84;;;18.24;64.80
48517;BME280;34310;51.904;4.256;2022-11-04T04:40:24;100386.34;;;18.22;64.77
48517;BME280;34310;51.904;4.256;2022-11-04T04:43:15;100388.09;;;18.22;64.88
48517;BME280;34310;51.904;4.256;2022-11-04T04:46:01;100394.25;;;18.24;64.73
48517;BME280;34310;51.904;4.256;2022-11-04T04:48:28;100395.91;;;18.22;64.66
48517;BME280;34310;51.904;4.256;2022-11-04T04:50:56;100396.84;;;18.24;64.78
48517;BME280;34310;51.904;4.256;2022-11-04T04:53:28;100401.16;;;18.22;64.71
48517;BME280;34310;51.904;4.256;2022-11-04T04:55:55;100395.78;;;18.19;64.92
48517;BME280;34310;51.904;4.256;2022-11-04T04:58:22;100394.94;;;18.20;64.76
48517;BME280;34310;51.904;4.256;2022-11-04T05:00:49;100408.91;;;18.20;64.79
48517;BME280;34310;51.904;4.256;2022-11-04T05:03:17;100410.59;;;18.18;64.86
48517;BME280;34310;51.904;4.256;2022-11-04T05:05:44;100408.81;;;18.17;65.09
48517;BME280;34310;51.904;4.256;2022-11-04T05:08:11;100411.38;;;18.16;64.82
48517;BME280;34310;51.904;4.256;2022-11-04T05:10:39;100413.03;;;18.14;65.15
48517;BME280;34310;51.904;4.256;2022-11-04T05:13:06;100420.09;;;18.16;64.73
48517;BME280;34310;51.904;4.256;2022-11-04T05:15:52;100423.59;;;18.17;64.78
48517;BME280;34310;51.904;4.256;2022-11-04T05:18:19;100433.16;;;18.16;64.78
48517;BME280;34310;51.904;4.256;2022-11-04T05:20:46;100432.28;;;18.16;64.76
48517;BME280;34310;51.904;4.256;2022-11-04T05:23:14;100437.59;;;18.19;64.88
48517;BME280;34310;51.904;4.256;2022-11-04T05:25:41;100447.94;;;18.16;64.82
48517;BME280;34310;51.904;4.256;2022-11-04T05:28:08;100447.84;;;18.13;64.83
48517;BME280;34310;51.904;4.256;2022-11-04T05:30:36;100453.06;;;18.13;64.84
48517;BME280;34310;51.904;4.256;2022-11-04T05:33:04;100453.06;;;18.13;65.15
48517;BME280;34310;51.904;4.256;2022-11-04T05:35:32;100459.25;;;18.15;64.98
48517;BME280;34310;51.904;4.256;2022-11-04T05:38:00;100459.19;;;18.13;64.79
48517;BME280;34310;51.904;4.256;2022-11-04T05:40:27;100460.97;;;18.14;65.01
48517;BME280;34310;51.904;4.256;2022-11-04T05:42:57;100468.84;;;18.16;64.90
48517;BME280;34310;51.904;4.256;2022-11-04T05:45:26;100467.97;;;18.15;64.96
48517;BME280;34310;51.904;4.256;2022-11-04T05:48:01;100473.25;;;18.17;64.78
48517;BME280;34310;51.904;4.256;2022-11-04T05:50:30;100475.81;;;18.15;64.75
48517;BME280;34310;51.904;4.256;2022-11-04T05:52:59;100468.81;;;18.14;65.01
48517;BME280;34310;51.904;4.256;2022-11-04T05:55:27;100473.03;;;18.11;65.03
48517;BME280;34310;51.904;4.256;2022-11-04T05:57:54;100471.41;;;18.14;64.79
48517;BME280;34310;51.904;4.256;2022-11-04T06:00:27;100478.31;;;18.12;64.96
48517;BME280;34310;51.904;4.256;2022-11-04T06:02:55;100480.88;;;18.11;65.11
48517;BME280;34310;51.904;4.256;2022-11-04T06:05:24;100487.03;;;18.13;64.99
48517;BME280;34310;51.904;4.256;2022-11-04T06:07:52;100494.81;;;18.11;64.86
48517;BME280;34310;51.904;4.256;2022-11-04T06:10:19;100507.06;;;18.12;65.17
48517;BME280;34310;51.904;4.256;2022-11-04T06:12:46;100498.31;;;18.12;64.98
48517;BME280;34310;51.904;4.256;2022-11-04T06:15:14;100508.78;;;18.12;64.85
48517;BME280;34310;51.904;4.256;2022-11-04T06:17:41;100501.78;;;18.11;64.96
48517;BME280;34310;51.904;4.256;2022-11-04T06:20:09;100503.56;;;18.12;64.84
48517;BME280;34310;51.904;4.256;2022-11-04T06:22:37;100506.16;;;18.12;65.07
48517;BME280;34310;51.904;4.256;2022-11-04T06:25:04;100504.34;;;18.09;64.96
48517;BME280;34310;51.904;4.256;2022-11-04T06:27:31;100512.13;;;18.08;65.18
48517;BME280;34310;51.904;4.256;2022-11-04T06:29:59;100501.78;;;18.11;65.13
48517;BME280;34310;51.904;4.256;2022-11-04T06:32:26;100511.34;;;18.10;64.98
48517;BME280;34310;51.904;4.256;2022-11-04T06:34:53;100506.91;;;18.08;65.18
48517;BME280;34310;51.904;4.256;2022-11-04T06:37:20;100507.84;;;18.10;64.94
48517;BME280;34310;51.904;4.256;2022-11-04T06:39:48;100508.66;;;18.09;65.04
48517;BME280;34310;51.904;4.256;2022-11-04T06:42:15;100503.56;;;18.12;64.88
48517;BME280;34310;51.904;4.256;2022-11-04T06:44:42;100504.38;;;18.11;64.92
48517;BME280;34310;51.904;4.256;2022-11-04T06:47:09;100500.88;;;18.10;64.77
48517;BME280;34310;51.904;4.256;2022-11-04T06:49:37;100499.16;;;18.11;64.96
48517;BME280;34310;51.904;4.256;2022-11-04T06:52:04;100500.84;;;18.09;65.05
48517;BME280;34310;51.904;4.256;2022-11-04T06:54:31;100503.44;;;18.09;65.25
48517;BME280;34310;51.904;4.256;2022-11-04T06:56:59;100512.13;;;18.08;65.09
48517;BME280;34310;51.904;4.256;2022-11-04T06:59:26;100517.41;;;18.09;65.09
48517;BME280;34310;51.904;4.256;2022-11-04T07:01:53;100520.84;;;18.08;65.17
48517;BME280;34310;51.904;4.256;2022-11-04T07:04:20;100527.78;;;18.08;64.98
48517;BME280;34310;51.904;4.256;2022-11-04T07:06:48;100530.41;;;18.08;64.90
48517;BME280;34310;51.904;4.256;2022-11-04T07:09:15;100525.97;;;18.05;65.03
48517;BME280;34310;51.904;4.256;2022-11-04T07:11:44;100530.34;;;18.06;65.12
48517;BME280;34310;51.904;4.256;2022-11-04T07:14:12;100539.97;;;18.07;64.95
48517;BME280;34310;51.904;4.256;2022-11-04T07:16:39;100550.38;;;18.06;65.13
48517;BME280;34310;51.904;4.256;2022-11-04T07:19:06;100548.59;;;18.05;65.31
48517;BME280;34310;51.904;4.256;2022-11-04T07:21:34;100553.91;;;18.08;64.92
48517;BME280;34310;51.904;4.256;2022-11-04T07:24:01;100556.53;;;18.08;65.13
48517;BME280;34310;51.904;4.256;2022-11-04T07:26:29;100559.94;;;18.05;65.07
48517;BME280;34310;51.904;4.256;2022-11-04T07:28:56;100559.94;;;18.05;65.05
48517;BME280;34310;51.904;4.256;2022-11-04T07:31:25;100560.81;;;18.06;65.08
48517;BME280;34310;51.904;4.256;2022-11-04T07:33:53;100558.97;;;18.03;65.11
48517;BME280;34310;51.904;4.256;2022-11-04T07:36:20;100565.16;;;18.05;65.01
48517;BME280;34310;51.904;4.256;2022-11-04T07:38:48;100570.38;;;18.05;65.16
48517;BME280;34310;51.904;4.256;2022-11-04T07:41:16;100576.50;;;18.06;65.07
48517;BME280;34310;51.904;4.256;2022-11-04T07:43:50;100580.88;;;18.07;64.92
48517;BME280;34310;51.904;4.256;2022-11-04T07:46:19;100590.44;;;18.06;64.95
48517;BME280;34310;51.904;4.256;2022-11-04T07:48:46;100597.41;;;18.06;64.90
48517;BME280;34310;51.904;4.256;2022-11-04T07:51:16;100598.34;;;18.08;64.97
48517;BME280;34310;51.904;4.256;2022-11-04T07:53:43;100597.41;;;18.06;65.02
48517;BME280;34310;51.904;4.256;2022-11-04T07:56:11;100606.91;;;18.04;65.16
48517;BME280;34310;51.904;4.256;2022-11-04T07:58:40;100606.94;;;18.05;65.11
48517;BME280;34310;51.904;4.256;2022-11-04T08:01:09;100607.78;;;18.04;65.12
48517;BME280;34310;51.904;4.256;2022-11-04T08:03:37;100613.91;;;18.05;65.24
48517;BME280;34310;51.904;4.256;2022-11-04T08:06:07;100613.97;;;18.06;65.13
48517;BME280;34310;51.904;4.256;2022-11-04T08:08:35;100617.50;;;18.08;64.97
48517;BME280;34310;51.904;4.256;2022-11-04T08:11:06;100619.13;;;18.05;65.15
48517;BME280;34310;51.904;4.256;2022-11-04T08:13:40;100627.97;;;18.08;65.05
48517;BME280;34310;51.904;4.256;2022-11-04T08:16:13;100625.34;;;18.08;65.04
48517;BME280;34310;51.904;4.256;2022-11-04T08:18:41;100629.63;;;18.06;64.93
48517;BME280;34310;51.904;4.256;2022-11-04T08:21:09;100626.75;;;17.99;65.22
48517;BME280;34310;51.904;4.256;2022-11-04T08:23:37;100627.94;;;17.84;65.71
48517;BME280;34310;51.904;4.256;2022-11-04T08:26:16;100632.88;;;17.77;66.12
48517;BME280;34310;51.904;4.256;2022-11-04T08:28:43;100631.84;;;17.73;66.20
48517;BME280;34310;51.904;4.256;2022-11-04T08:31:22;100633.31;;;17.67;66.51
48517;BME280;34310;51.904;4.256;2022-11-04T08:33:52;100637.50;;;17.63;66.52
48517;BME280;34310;51.904;4.256;2022-11-04T08:36:28;100646.16;;;17.62;66.95
48517;BME280;34310;51.904;4.256;2022-11-04T08:38:56;100648.59;;;17.57;66.75
48517;BME280;34310;51.904;4.256;2022-11-04T08:41:27;100650.38;;;17.58;66.85
48517;BME280;34310;51.904;4.256;2022-11-04T08:43:56;100647.72;;;17.57;66.84
48517;BME280;34310;51.904;4.256;2022-11-04T08:46:27;100659.81;;;17.55;67.25
48517;BME280;34310;51.904;4.256;2022-11-04T08:48:55;100659.88;;;17.56;66.85
48517;BME280;34310;51.904;4.256;2022-11-04T08:51:24;100660.75;;;17.57;66.98
48517;BME280;34310;51.904;4.256;2022-11-04T08:53:53;100666.75;;;17.54;67.09
48517;BME280;34310;51.904;4.256;2022-11-04T08:56:29;100667.63;;;17.55;67.00
48517;BME280;34310;51.904;4.256;2022-11-04T08:58:58;100670.25;;;17.55;67.00
48517;BME280;34310;51.904;4.256;2022-11-04T09:01:27;100678.09;;;17.55;67.04
48517;BME280;34310;51.904;4.256;2022-11-04T09:04:02;100680.94;;;17.61;66.83
48517;BME280;34310;51.904;4.256;2022-11-04T09:06:35;100685.31;;;17.62;67.00
48517;BME280;34310;51.904;4.256;2022-11-04T09:09:05;100685.31;;;17.62;66.84
48517;BME280;34310;51.904;4.256;2022-11-04T09:11:37;100681.16;;;17.65;67.20
48517;BME280;34310;51.904;4.256;2022-11-04T09:14:06;100681.69;;;17.79;67.08
48517;BME280;34310;51.904;4.256;2022-11-04T09:16:35;100681.16;;;17.88;66.75
48517;BME280;34310;51.904;4.256;2022-11-04T09:19:03;100689.31;;;17.95;66.56
48517;BME280;34310;51.904;4.256;2022-11-04T09:21:31;100690.97;;;17.93;66.86
48517;BME280;34310;51.904;4.256;2022-11-04T09:23:58;100695.66;;;18.02;66.31
48517;BME280;34310;51.904;4.256;2022-11-04T09:26:25;100702.66;;;18.03;66.30
48517;BME280;34310;51.904;4.256;2022-11-04T09:28:57;100699.34;;;18.07;65.98
48517;BME280;34310;51.904;4.256;2022-11-04T09:31:26;100707.41;;;18.13;66.03
48517;BME280;34310;51.904;4.256;2022-11-04T09:33:55;100713.63;;;18.17;66.08
48517;BME280;34310;51.904;4.256;2022-11-04T09:36:22;100710.13;;;18.16;66.16
48517;BME280;34310;51.904;4.256;2022-11-04T09:38:50;100714.56;;;18.19;65.97
48517;BME280;34310;51.904;4.256;2022-11-04T09:46:59;100725.91;;;18.19;66.34
48517;BME280;34310;51.904;4.256;2022-11-04T09:49:35;100730.41;;;18.22;66.27
48517;BME280;34310;51.904;4.256;2022-11-04T09:52:12;100729.63;;;18.24;65.97
48517;BME280;34310;51.904;4.256;2022-11-04T09:54:49;100742.19;;;18.35;65.66
48517;BME280;34310;51.904;4.256;2022-11-04T09:57:19;100743.31;;;18.41;65.33
48517;BME280;34310;51.904;4.256;2022-11-04T09:59:47;100751.31;;;18.46;65.46
48517;BME280;34310;51.904;4.256;2022-11-04T10:05:07;100756.56;;;18.46;65.31
48517;BME280;34310;51.904;4.256;2022-11-04T10:11:37;100772.44;;;18.50;65.18
48517;BME280;34310;51.904;4.256;2022-11-04T10:13:45;100771.59;;;18.51;65.15
48517;BME280;34310;51.904;4.256;2022-11-04T10:22:01;100780.44;;;18.55;65.13
48517;BME280;34310;51.904;4.256;2022-11-04T10:27:24;100782.13;;;18.53;65.25
48517;BME280;34310;51.904;4.256;2022-11-04T10:38:18;100796.56;;;18.66;64.91
48517;BME280;34310;51.904;4.256;2022-11-04T10:40:49;100802.38;;;18.58;65.03
48517;BME280;34310;51.904;4.256;2022-11-04T10:43:35;100804.34;;;18.64;64.96
48517;BME280;34310;51.904;4.256;2022-11-04T10:51:39;100809.13;;;18.76;64.51
48517;BME280;34310;51.904;4.256;2022-11-04T10:54:08;100806.84;;;18.83;64.62
48517;BME280;34310;51.904;4.256;2022-11-04T10:57:05;100805.31;;;18.90;64.44
48517;BME280;34310;51.904;4.256;2022-11-04T11:02:41;100815.13;;;18.96;64.12
48517;BME280;34310;51.904;4.256;2022-11-04T11:07:47;100820.34;;;18.96;64.65
48517;BME280;34310;51.904;4.256;2022-11-04T11:10:24;100827.16;;;18.91;64.60
48517;BME280;34310;51.904;4.256;2022-11-04T11:12:53;100837.44;;;18.86;64.61
48517;BME280;34310;51.904;4.256;2022-11-04T11:18:11;100846.13;;;18.85;64.62
48517;BME280;34310;51.904;4.256;2022-11-04T11:20:39;100865.22;;;18.82;64.79
48517;BME280;34310;51.904;4.256;2022-11-04T11:23:43;100858.16;;;18.80;65.11
48517;BME280;34310;51.904;4.256;2022-11-04T11:26:15;100858.91;;;18.77;65.05
48517;BME280;34310;51.904;4.256;2022-11-04T11:28:52;100863.22;;;18.77;65.09
48517;BME280;34310;51.904;4.256;2022-11-04T11:31:26;100869.34;;;18.77;64.99
48517;BME280;34310;51.904;4.256;2022-11-04T11:34:12;100870.25;;;18.78;64.70
48517;BME280;34310;51.904;4.256;2022-11-04T11:36:42;100880.72;;;18.78;64.82
48517;BME280;34310;51.904;4.256;2022-11-04T11:42:10;100885.44;;;18.86;64.79
48517;BME280;34310;51.904;4.256;2022-11-04T11:44:41;100881.75;;;18.81;64.77
48517;BME280;34310;51.904;4.256;2022-11-04T11:47:20;100885.25;;;18.82;64.93
48517;BME280;34310;51.904;4.256;2022-11-04T11:52:33;100896.56;;;18.81;64.85
48517;BME280;34310;51.904;4.256;2022-11-04T11:57:37;100916.38;;;18.76;64.89
48517;BME280;34310;51.904;4.256;2022-11-04T12:00:11;100910.19;;;18.74;65.05
48517;BME280;34310;51.904;4.256;2022-11-04T12:03:11;100911.94;;;18.73;64.81
48517;BME280;34310;51.904;4.256;2022-11-04T12:09:11;100916.22;;;18.71;65.04
48517;BME280;34310;51.904;4.256;2022-11-04T12:18:04;100932.66;;;18.69;65.04
48517;BME280;34310;51.904;4.256;2022-11-04T12:20:44;100924.59;;;18.63;64.75
48517;BME280;34310;51.904;4.256;2022-11-04T12:24:12;100932.56;;;18.66;64.79
48517;BME280;34310;51.904;4.256;2022-11-04T12:26:34;100931.72;;;18.67;64.95
48517;BME280;34310;51.904;4.256;2022-11-04T12:35:09;100939.69;;;18.70;64.82
48517;BME280;34310;51.904;4.256;2022-11-04T12:40:27;100951.94;;;18.71;64.97
48517;BME280;34310;51.904;4.256;2022-11-04T12:43:11;100954.66;;;18.74;65.05
48517;BME280;34310;51.904;4.256;2022-11-04T12:51:19;100976.66;;;18.79;64.66
48517;BME280;34310;51.904;4.256;2022-11-04T12:56:25;100990.38;;;18.94;64.17
48517;BME280;34310;51.904;4.256;2022-11-04T13:01:51;101010.34;;;18.92;64.23
48517;BME280;34310;51.904;4.256;2022-11-04T13:04:24;101006.78;;;18.90;64.46
48517;BME280;34310;51.904;4.256;2022-11-04T13:07:11;101014.50;;;18.87;64.64
48517;BME280;34310;51.904;4.256;2022-11-04T13:09:52;101011.19;;;18.91;64.43
48517;BME280;34310;51.904;4.256;2022-11-04T13:12:24;101016.22;;;18.86;64.67
48517;BME280;34310;51.904;4.256;2022-11-04T13:17:46;101021.97;;;18.78;64.75
48517;BME280;34310;51.904;4.256;2022-11-04T13:23:12;101031.47;;;18.76;64.85
48517;BME280;34310;51.904;4.256;2022-11-04T13:25:43;101040.03;;;18.72;65.15
48517;BME280;34310;51.904;4.256;2022-11-04T13:28:13;101047.75;;;18.69;65.59
48517;BME280;34310;51.904;4.256;2022-11-04T13:31:02;101052.84;;;18.66;65.46
48517;BME280;34310;51.904;4.256;2022-11-04T13:33:44;101064.97;;;18.64;65.64
48517;BME280;34310;51.904;4.256;2022-11-04T13:39:03;101068.31;;;18.80;64.94
48517;BME280;34310;51.904;4.256;2022-11-04T13:44:25;101067.25;;;18.77;65.00
48517;BME280;34310;51.904;4.256;2022-11-04T13:46:56;101071.66;;;18.78;65.20
48517;BME280;34310;51.904;4.256;2022-11-04T13:49:32;101071.59;;;18.76;65.29
48517;BME280;34310;51.904;4.256;2022-11-04T13:52:11;101059.47;;;18.78;65.31
48517;BME280;34310;51.904;4.256;2022-11-04T13:54:54;101067.13;;;18.74;65.57
48517;BME280;34310;51.904;4.256;2022-11-04T13:57:26;101069.75;;;18.74;65.55
48517;BME280;34310;51.904;4.256;2022-11-04T14:02:42;101079.19;;;18.70;65.74
48517;BME280;34310;51.904;4.256;2022-11-04T14:18:48;101091.38;;;18.91;65.01
48517;BME280;34310;51.904;4.256;2022-11-04T14:21:18;101081.56;;;18.85;65.24
48517;BME280;34310;51.904;4.256;2022-11-04T14:23:53;101089.72;;;18.93;64.94
48517;BME280;34310;51.904;4.256;2022-11-04T14:26:26;101091.44;;;18.92;64.31
48517;BME280;34310;51.904;4.256;2022-11-04T14:29:05;101094.00;;;18.91;64.80
48517;BME280;34310;51.904;4.256;2022-11-04T14:31:48;101098.09;;;18.84;65.23
48517;BME280;34310;51.904;4.256;2022-11-04T14:34:29;101096.50;;;18.87;65.06
48517;BME280;34310;51.904;4.256;2022-11-04T14:36:58;101108.56;;;18.84;65.31
48517;BME280;34310;51.904;4.256;2022-11-04T14:39:36;101112.97;;;18.85;65.44
48517;BME280;34310;51.904;4.256;2022-11-04T14:42:05;101120.63;;;18.80;65.55
48517;BME280;34310;51.904;4.256;2022-11-04T14:47:24;101129.03;;;18.73;65.70
48517;BME280;34310;51.904;4.256;2022-11-04T14:52:34;101136.94;;;18.75;65.70
48517;BME280;34310;51.904;4.256;2022-11-04T14:57:41;101143.94;;;18.76;65.55
48517;BME280;34310;51.904;4.256;2022-11-04T15:06:08;101138.09;;;18.81;65.18
48517;BME280;34310;51.904;4.256;2022-11-04T15:11:14;101144.47;;;18.88;64.96
48517;BME280;34310;51.904;4.256;2022-11-04T15:13:49;101149.06;;;18.94;64.83
48517;BME280;34310;51.904;4.256;2022-11-04T15:16:27;101156.94;;;18.94;64.77
48517;BME280;34310;51.904;4.256;2022-11-04T15:18:58;101158.59;;;18.92;64.84
48517;BME280;34310;51.904;4.256;2022-11-04T15:21:25;101159.41;;;18.91;64.86
48517;BME280;34310;51.904;4.256;2022-11-04T15:23:54;101161.84;;;18.86;65.12
48517;BME280;34310;51.904;4.256;2022-11-04T15:26:27;101167.00;;;18.84;65.23
48517;BME280;34310;51.904;4.256;2022-11-04T15:29:02;101166.72;;;18.78;65.30
48517;BME280;34310;51.904;4.256;2022-11-04T15:31:34;101170.16;;;18.77;65.16
48517;BME280;34310;51.904;4.256;2022-11-04T15:34:04;101177.28;;;18.80;65.11
48517;BME280;34310;51.904;4.256;2022-11-04T15:36:41;101180.03;;;18.83;64.93
48517;BME280;34310;51.904;4.256;2022-11-04T15:41:51;101171.22;;;18.81;64.90
48517;BME280;34310;51.904;4.256;2022-11-04T15:44:45;101175.06;;;18.89;64.86
48517;BME280;34310;51.904;4.256;2022-11-04T15:47:23;101181.75;;;18.82;65.12
48517;BME280;34310;51.904;4.256;2022-11-04T15:49:52;101193.66;;;18.76;65.40
48517;BME280;34310;51.904;4.256;2022-11-04T15:52:23;101190.63;;;18.86;64.98
48517;BME280;34310;51.904;4.256;2022-11-04T15:54:53;101200.97;;;18.83;64.84
48517;BME280;34310;51.904;4.256;2022-11-04T15:57:37;101205.91;;;18.77;64.84
48517;BME280;34310;51.904;4.256;2022-11-04T16:00:21;101207.41;;;18.72;65.26
48517;BME280;34310;51.904;4.256;2022-11-04T16:02:52;101209.41;;;18.77;65.23
48517;BME280;34310;51.904;4.256;2022-11-04T16:05:22;101206.31;;;18.86;64.82